sensor_id;sensor_type;location;lat;lon;timestamp;noise_LAeq;noise_LA_min;noise_LA_max;noise_LA01;noise_LA95
49732;Laerm;43666;51.442;6.778;2022-12-18T00:02:09;37.45;28.67;41.46;;
49732;Laerm;43666;51.442;6.778;2022-12-18T00:04:35;37.62;26.91;41.46;;
49732;Laerm;43666;51.442;6.778;2022-12-18T00:07:02;37.54;29.92;41.30;;
49732;Laerm;43666;51.442;6.778;2022-12-18T00:09:28;37.52;28.67;41.68;;
49732;Laerm;43666;51.442;6.778;2022-12-18T00:11:54;37.20;28.67;41.14;;
49732;Laerm;43666;51.442;6.778;2022-12-18T00:14:19;36.84;28.67;40.89;;
49732;Laerm;43666;51.442;6.778;2022-12-18T00:16:48;36.97;26.91;40.89;;
49732;Laerm;43666;51.442;6.778;2022-12-18T00:19:15;37.00;28.67;40.80;;
49732;Laerm;43666;51.442;6.778;2022-12-18T00:21:41;36.96;28.67;44.23;;
49732;Laerm;43666;51.442;6.778;2022-12-18T00:24:08;36.78;29.92;41.06;;
49732;Laerm;43666;51.442;6.778;2022-12-18T00:26:35;36.91;26.91;41.89;;
49732;Laerm;43666;51.442;6.778;2022-12-18T00:29:06;37.32;28.67;41.22;;
49732;Laerm;43666;51.442;6.778;2022-12-18T00:31:33;37.01;26.91;41.06;;
49732;Laerm;43666;51.442;6.778;2022-12-18T00:33:58;36.62;26.91;41.06;;
49732;Laerm;43666;51.442;6.778;2022-12-18T00:36:25;36.85;26.91;40.71;;
49732;Laerm;43666;51.442;6.778;2022-12-18T00:38:53;36.63;5.00;40.13;;
49732;Laerm;43666;51.442;6.778;2022-12-18T00:41:19;36.94;26.91;41.14;;
49732;Laerm;43666;51.442;6.778;2022-12-18T00:44:04;37.08;28.67;42.53;;
49732;Laerm;43666;51.442;6.778;2022-12-18T00:46:31;36.95;28.67;41.22;;
49732;Laerm;43666;51.442;6.778;2022-12-18T00:48:57;37.05;28.67;41.14;;
49732;Laerm;43666;51.442;6.778;2022-12-18T00:51:23;37.11;29.92;41.30;;
49732;Laerm;43666;51.442;6.778;2022-12-18T00:53:49;37.13;28.67;41.30;;
49732;Laerm;43666;51.442;6.778;2022-12-18T00:56:14;37.37;28.67;41.22;;
49732;Laerm;43666;51.442;6.778;2022-12-18T00:58:40;37.03;26.91;41.53;;
49732;Laerm;43666;51.442;6.778;2022-12-18T01:01:06;36.89;28.67;40.98;;
49732;Laerm;43666;51.442;6.778;2022-12-18T01:03:32;36.83;26.91;40.98;;
49732;Laerm;43666;51.442;6.778;2022-12-18T01:05:58;36.78;26.91;41.61;;
49732;Laerm;43666;51.442;6.778;2022-12-18T01:08:23;36.93;29.57;41.14;;
49732;Laerm;43666;51.442;6.778;2022-12-18T01:10:50;36.80;28.67;41.14;;
49732;Laerm;43666;51.442;6.778;2022-12-18T01:13:16;36.80;28.67;40.98;;
49732;Laerm;43666;51.442;6.778;2022-12-18T01:15:49;36.68;28.67;40.80;;
49732;Laerm;43666;51.442;6.778;2022-12-18T01:18:14;36.93;28.67;40.98;;
49732;Laerm;43666;51.442;6.778;2022-12-18T01:20:40;36.81;26.91;41.68;;
49732;Laerm;43666;51.442;6.778;2022-12-18T01:23:06;36.87;26.91;40.71;;
49732;Laerm;43666;51.442;6.778;2022-12-18T01:25:31;36.76;28.67;40.23;;
49732;Laerm;43666;51.442;6.778;2022-12-18T01:27:57;36.68;26.91;40.62;;
49732;Laerm;43666;51.442;6.778;2022-12-18T01:30:23;36.67;28.67;40.62;;
49732;Laerm;43666;51.442;6.778;2022-12-18T01:32:49;36.98;26.91;41.96;;
49732;Laerm;43666;51.442;6.778;2022-12-18T01:35:15;36.64;26.91;41.89;;
49732;Laerm;43666;51.442;6.778;2022-12-18T01:37:41;36.59;23.90;40.23;;
49732;Laerm;43666;51.442;6.778;2022-12-18T01:40:07;36.67;29.92;40.33;;
49732;Laerm;43666;51.442;6.778;2022-12-18T01:42:33;36.63;23.90;41.46;;
49732;Laerm;43666;51.442;6.778;2022-12-18T01:47:41;36.57;28.67;40.23;;
49732;Laerm;43666;51.442;6.778;2022-12-18T01:52:42;36.52;26.91;40.62;;
49732;Laerm;43666;51.442;6.778;2022-12-18T01:55:09;36.69;5.00;40.33;;
49732;Laerm;43666;51.442;6.778;2022-12-18T01:57:36;36.61;28.67;40.53;;
49732;Laerm;43666;51.442;6.778;2022-12-18T02:00:06;36.69;28.67;41.46;;
49732;Laerm;43666;51.442;6.778;2022-12-18T02:02:33;36.70;23.90;40.71;;
49732;Laerm;43666;51.442;6.778;2022-12-18T02:04:59;36.79;28.67;41.14;;
49732;Laerm;43666;51.442;6.778;2022-12-18T02:08:12;37.05;29.92;41.06;;
49732;Laerm;43666;51.442;6.778;2022-12-18T02:10:20;36.78;26.91;40.80;;
49732;Laerm;43666;51.442;6.778;2022-12-18T02:12:55;36.84;23.90;41.06;;
49732;Laerm;43666;51.442;6.778;2022-12-18T02:15:24;36.85;29.92;41.14;;
49732;Laerm;43666;51.442;6.778;2022-12-18T02:17:57;36.77;28.32;41.46;;
49732;Laerm;43666;51.442;6.778;2022-12-18T02:20:33;36.95;28.67;40.71;;
49732;Laerm;43666;51.442;6.778;2022-12-18T02:28:11;36.88;26.91;41.46;;
49732;Laerm;43666;51.442;6.778;2022-12-18T02:30:38;36.88;26.91;41.26;;
49732;Laerm;43666;51.442;6.778;2022-12-18T02:33:04;37.15;29.92;41.38;;
49732;Laerm;43666;51.442;6.778;2022-12-18T02:35:32;37.17;26.91;40.98;;
49732;Laerm;43666;51.442;6.778;2022-12-18T02:37:59;37.16;28.67;41.06;;
49732;Laerm;43666;51.442;6.778;2022-12-18T02:40:26;37.01;28.67;40.98;;
49732;Laerm;43666;51.442;6.778;2022-12-18T02:42:54;36.97;28.67;41.30;;
49732;Laerm;43666;51.442;6.778;2022-12-18T02:45:19;36.97;29.92;41.38;;
49732;Laerm;43666;51.442;6.778;2022-12-18T02:47:46;36.98;26.91;41.46;;
49732;Laerm;43666;51.442;6.778;2022-12-18T02:50:22;36.89;28.67;40.80;;
49732;Laerm;43666;51.442;6.778;2022-12-18T02:58:10;36.84;28.67;40.89;;
49732;Laerm;43666;51.442;6.778;2022-12-18T03:00:43;36.91;28.67;41.38;;
49732;Laerm;43666;51.442;6.778;2022-12-18T03:05:49;37.04;29.92;41.14;;
49732;Laerm;43666;51.442;6.778;2022-12-18T03:08:27;37.07;26.91;40.98;;
49732;Laerm;43666;51.442;6.778;2022-12-18T03:10:56;36.82;30.89;41.33;;
49732;Laerm;43666;51.442;6.778;2022-12-18T03:13:28;36.93;29.57;48.96;;
49732;Laerm;43666;51.442;6.778;2022-12-18T03:15:57;37.02;26.91;42.03;;
49732;Laerm;43666;51.442;6.778;2022-12-18T03:18:30;37.18;26.91;41.14;;
49732;Laerm;43666;51.442;6.778;2022-12-18T03:20:58;37.40;26.91;40.80;;
49732;Laerm;43666;51.442;6.778;2022-12-18T03:23:27;37.14;29.92;40.71;;
49732;Laerm;43666;51.442;6.778;2022-12-18T03:25:56;37.00;29.92;40.53;;
49732;Laerm;43666;51.442;6.778;2022-12-18T03:28:23;37.27;28.67;41.61;;
49732;Laerm;43666;51.442;6.778;2022-12-18T03:30:50;36.94;28.67;42.71;;
49732;Laerm;43666;51.442;6.778;2022-12-18T03:33:19;37.20;29.92;41.38;;
49732;Laerm;43666;51.442;6.778;2022-12-18T03:35:47;37.07;28.32;41.46;;
49732;Laerm;43666;51.442;6.778;2022-12-18T03:38:16;36.98;28.67;40.80;;
49732;Laerm;43666;51.442;6.778;2022-12-18T03:43:41;36.80;26.91;40.62;;
49732;Laerm;43666;51.442;6.778;2022-12-18T03:46:08;36.92;26.56;40.71;;
49732;Laerm;43666;51.442;6.778;2022-12-18T03:48:38;36.90;28.67;40.71;;
49732;Laerm;43666;51.442;6.778;2022-12-18T03:51:11;36.90;23.90;41.06;;
49732;Laerm;43666;51.442;6.778;2022-12-18T03:53:51;37.14;28.67;40.71;;
49732;Laerm;43666;51.442;6.778;2022-12-18T03:56:18;37.30;30.89;41.06;;
49732;Laerm;43666;51.442;6.778;2022-12-18T03:58:46;36.96;26.91;40.62;;
49732;Laerm;43666;51.442;6.778;2022-12-18T04:01:14;37.02;28.67;41.06;;
49732;Laerm;43666;51.442;6.778;2022-12-18T04:03:42;36.88;28.67;41.14;;
49732;Laerm;43666;51.442;6.778;2022-12-18T04:06:08;36.86;28.67;40.62;;
49732;Laerm;43666;51.442;6.778;2022-12-18T04:08:36;37.12;28.67;41.22;;
49732;Laerm;43666;51.442;6.778;2022-12-18T04:11:03;36.86;28.67;40.80;;
49732;Laerm;43666;51.442;6.778;2022-12-18T04:13:31;36.91;26.91;40.53;;
49732;Laerm;43666;51.442;6.778;2022-12-18T04:15:58;37.02;30.89;40.89;;
49732;Laerm;43666;51.442;6.778;2022-12-18T04:18:23;37.16;29.92;41.06;;
49732;Laerm;43666;51.442;6.778;2022-12-18T04:20:49;37.05;26.91;40.89;;
49732;Laerm;43666;51.442;6.778;2022-12-18T04:23:15;36.86;28.32;40.18;;
49732;Laerm;43666;51.442;6.778;2022-12-18T04:25:41;37.13;26.91;40.89;;
49732;Laerm;43666;51.442;6.778;2022-12-18T04:28:07;36.95;28.67;40.71;;
49732;Laerm;43666;51.442;6.778;2022-12-18T04:30:33;36.92;28.67;40.71;;
49732;Laerm;43666;51.442;6.778;2022-12-18T04:32:59;36.72;26.91;40.43;;
49732;Laerm;43666;51.442;6.778;2022-12-18T04:35:25;36.83;26.91;40.53;;
49732;Laerm;43666;51.442;6.778;2022-12-18T04:37:51;37.02;28.32;40.89;;
49732;Laerm;43666;51.442;6.778;2022-12-18T04:40:16;36.97;28.67;40.71;;
49732;Laerm;43666;51.442;6.778;2022-12-18T04:42:42;36.91;28.67;40.80;;
49732;Laerm;43666;51.442;6.778;2022-12-18T04:45:08;36.73;26.91;40.03;;
49732;Laerm;43666;51.442;6.778;2022-12-18T04:47:34;36.79;23.90;40.43;;
49732;Laerm;43666;51.442;6.778;2022-12-18T04:50:00;36.67;23.90;40.71;;
49732;Laerm;43666;51.442;6.778;2022-12-18T04:52:26;36.64;26.91;40.53;;
49732;Laerm;43666;51.442;6.778;2022-12-18T04:54:53;36.77;28.67;40.43;;
49732;Laerm;43666;51.442;6.778;2022-12-18T04:57:18;36.60;29.92;40.53;;
49732;Laerm;43666;51.442;6.778;2022-12-18T04:59:44;36.63;28.67;40.23;;
49732;Laerm;43666;51.442;6.778;2022-12-18T05:02:10;36.71;29.92;40.53;;
49732;Laerm;43666;51.442;6.778;2022-12-18T05:04:36;36.72;23.90;40.53;;
49732;Laerm;43666;51.442;6.778;2022-12-18T05:07:01;36.75;23.90;40.43;;
49732;Laerm;43666;51.442;6.778;2022-12-18T05:09:27;36.69;28.67;40.13;;
49732;Laerm;43666;51.442;6.778;2022-12-18T05:11:53;36.96;29.92;40.62;;
49732;Laerm;43666;51.442;6.778;2022-12-18T05:14:19;36.89;30.54;40.71;;
49732;Laerm;43666;51.442;6.778;2022-12-18T05:16:44;36.80;26.91;40.23;;
49732;Laerm;43666;51.442;6.778;2022-12-18T05:19:10;36.83;26.91;41.22;;
49732;Laerm;43666;51.442;6.778;2022-12-18T05:21:35;36.74;23.90;39.92;;
49732;Laerm;43666;51.442;6.778;2022-12-18T05:24:02;36.92;28.32;40.13;;
49732;Laerm;43666;51.442;6.778;2022-12-18T05:26:28;36.69;26.91;40.71;;
49732;Laerm;43666;51.442;6.778;2022-12-18T05:28:53;36.81;26.91;40.23;;
49732;Laerm;43666;51.442;6.778;2022-12-18T05:31:19;36.64;28.67;40.53;;
49732;Laerm;43666;51.442;6.778;2022-12-18T05:33:45;36.75;28.67;40.62;;
49732;Laerm;43666;51.442;6.778;2022-12-18T05:36:11;36.64;29.92;40.53;;
49732;Laerm;43666;51.442;6.778;2022-12-18T05:38:37;36.70;28.67;39.78;;
49732;Laerm;43666;51.442;6.778;2022-12-18T05:41:04;36.87;29.92;40.53;;
49732;Laerm;43666;51.442;6.778;2022-12-18T05:43:29;36.88;26.91;40.80;;
49732;Laerm;43666;51.442;6.778;2022-12-18T05:45:56;36.95;26.91;40.62;;
49732;Laerm;43666;51.442;6.778;2022-12-18T05:48:23;37.09;29.92;41.14;;
49732;Laerm;43666;51.442;6.778;2022-12-18T05:50:49;37.13;29.92;41.30;;
49732;Laerm;43666;51.442;6.778;2022-12-18T05:53:18;37.07;29.92;41.14;;
49732;Laerm;43666;51.442;6.778;2022-12-18T05:55:45;36.98;28.67;40.98;;
49732;Laerm;43666;51.442;6.778;2022-12-18T05:58:12;36.97;5.00;40.98;;
49732;Laerm;43666;51.442;6.778;2022-12-18T06:00:38;36.84;26.91;40.89;;
49732;Laerm;43666;51.442;6.778;2022-12-18T06:03:08;36.73;29.57;41.68;;
49732;Laerm;43666;51.442;6.778;2022-12-18T06:05:35;36.74;26.91;40.71;;
49732;Laerm;43666;51.442;6.778;2022-12-18T06:08:01;36.77;28.67;40.80;;
49732;Laerm;43666;51.442;6.778;2022-12-18T06:10:27;36.82;28.67;40.53;;
49732;Laerm;43666;51.442;6.778;2022-12-18T06:12:53;36.76;28.67;40.53;;
49732;Laerm;43666;51.442;6.778;2022-12-18T06:15:18;36.67;26.91;40.71;;
49732;Laerm;43666;51.442;6.778;2022-12-18T06:17:44;36.63;26.91;40.89;;
49732;Laerm;43666;51.442;6.778;2022-12-18T06:20:09;36.69;29.92;40.62;;
49732;Laerm;43666;51.442;6.778;2022-12-18T06:22:36;36.63;28.67;40.53;;
49732;Laerm;43666;51.442;6.778;2022-12-18T06:25:01;36.75;30.89;40.62;;
49732;Laerm;43666;51.442;6.778;2022-12-18T06:27:27;36.81;26.91;40.89;;
49732;Laerm;43666;51.442;6.778;2022-12-18T06:29:53;36.71;29.92;41.61;;
49732;Laerm;43666;51.442;6.778;2022-12-18T06:32:19;36.75;26.91;40.80;;
49732;Laerm;43666;51.442;6.778;2022-12-18T06:34:45;36.68;23.90;40.98;;
49732;Laerm;43666;51.442;6.778;2022-12-18T06:37:11;36.63;23.90;40.89;;
49732;Laerm;43666;51.442;6.778;2022-12-18T06:39:37;36.67;28.67;40.71;;
49732;Laerm;43666;51.442;6.778;2022-12-18T06:42:04;36.64;26.91;40.62;;
49732;Laerm;43666;51.442;6.778;2022-12-18T06:44:29;36.62;28.67;40.53;;
49732;Laerm;43666;51.442;6.778;2022-12-18T06:46:55;36.62;26.91;40.53;;
49732;Laerm;43666;51.442;6.778;2022-12-18T06:49:21;36.58;28.67;40.80;;
49732;Laerm;43666;51.442;6.778;2022-12-18T06:51:47;36.53;26.91;40.13;;
49732;Laerm;43666;51.442;6.778;2022-12-18T06:54:13;36.42;28.67;40.13;;
49732;Laerm;43666;51.442;6.778;2022-12-18T06:56:38;36.47;26.91;41.06;;
49732;Laerm;43666;51.442;6.778;2022-12-18T06:59:04;36.40;23.90;39.81;;
49732;Laerm;43666;51.442;6.778;2022-12-18T07:01:29;36.42;5.00;39.81;;
49732;Laerm;43666;51.442;6.778;2022-12-18T07:03:55;36.42;28.67;39.92;;
49732;Laerm;43666;51.442;6.778;2022-12-18T07:06:22;36.46;28.67;40.53;;
49732;Laerm;43666;51.442;6.778;2022-12-18T07:08:49;36.46;29.92;40.03;;
49732;Laerm;43666;51.442;6.778;2022-12-18T07:11:15;36.57;23.90;41.06;;
49732;Laerm;43666;51.442;6.778;2022-12-18T07:13:42;36.64;26.91;40.43;;
49732;Laerm;43666;51.442;6.778;2022-12-18T07:16:08;36.59;28.67;40.71;;
49732;Laerm;43666;51.442;6.778;2022-12-18T07:18:35;36.68;28.67;40.71;;
49732;Laerm;43666;51.442;6.778;2022-12-18T07:21:07;36.95;26.91;40.53;;
49732;Laerm;43666;51.442;6.778;2022-12-18T07:23:34;36.93;26.91;40.71;;
49732;Laerm;43666;51.442;6.778;2022-12-18T07:26:01;36.65;26.91;40.45;;
49732;Laerm;43666;51.442;6.778;2022-12-18T07:28:27;36.66;29.92;40.23;;
49732;Laerm;43666;51.442;6.778;2022-12-18T07:30:53;36.60;26.91;40.08;;
49732;Laerm;43666;51.442;6.778;2022-12-18T07:33:19;36.57;29.92;40.33;;
49732;Laerm;43666;51.442;6.778;2022-12-18T07:35:45;36.65;28.67;40.43;;
49732;Laerm;43666;51.442;6.778;2022-12-18T07:38:11;36.63;28.32;40.71;;
49732;Laerm;43666;51.442;6.778;2022-12-18T07:40:38;36.70;26.91;40.43;;
49732;Laerm;43666;51.442;6.778;2022-12-18T07:43:03;36.60;28.67;40.13;;
49732;Laerm;43666;51.442;6.778;2022-12-18T07:45:29;36.65;26.91;40.71;;
49732;Laerm;43666;51.442;6.778;2022-12-18T07:47:55;36.52;26.91;46.78;;
49732;Laerm;43666;51.442;6.778;2022-12-18T07:50:21;36.55;26.91;40.36;;
49732;Laerm;43666;51.442;6.778;2022-12-18T07:52:47;36.63;26.91;40.53;;
49732;Laerm;43666;51.442;6.778;2022-12-18T07:55:13;36.77;28.67;40.33;;
49732;Laerm;43666;51.442;6.778;2022-12-18T07:57:39;36.86;28.67;42.16;;
49732;Laerm;43666;51.442;6.778;2022-12-18T08:00:05;36.72;29.92;40.33;;
49732;Laerm;43666;51.442;6.778;2022-12-18T08:02:31;36.68;28.67;45.75;;
49732;Laerm;43666;51.442;6.778;2022-12-18T08:04:56;36.58;29.57;40.23;;
49732;Laerm;43666;51.442;6.778;2022-12-18T08:07:22;36.61;26.91;39.92;;
49732;Laerm;43666;51.442;6.778;2022-12-18T08:09:48;36.69;28.67;40.33;;
49732;Laerm;43666;51.442;6.778;2022-12-18T08:12:13;36.64;28.32;40.43;;
49732;Laerm;43666;51.442;6.778;2022-12-18T08:14:39;36.61;26.91;40.33;;
49732;Laerm;43666;51.442;6.778;2022-12-18T08:17:05;36.60;26.91;40.13;;
49732;Laerm;43666;51.442;6.778;2022-12-18T08:19:31;36.97;28.67;40.62;;
49732;Laerm;43666;51.442;6.778;2022-12-18T08:21:57;36.85;28.67;41.38;;
49732;Laerm;43666;51.442;6.778;2022-12-18T08:24:23;36.71;23.90;40.80;;
49732;Laerm;43666;51.442;6.778;2022-12-18T08:26:48;36.49;28.67;39.81;;
49732;Laerm;43666;51.442;6.778;2022-12-18T08:29:14;36.49;26.91;40.27;;
49732;Laerm;43666;51.442;6.778;2022-12-18T08:31:40;36.84;26.91;40.62;;
49732;Laerm;43666;51.442;6.778;2022-12-18T08:34:06;36.67;29.92;40.71;;
49732;Laerm;43666;51.442;6.778;2022-12-18T08:36:31;36.84;29.92;40.53;;
49732;Laerm;43666;51.442;6.778;2022-12-18T08:38:57;36.76;28.67;40.62;;
49732;Laerm;43666;51.442;6.778;2022-12-18T08:41:23;36.78;28.67;40.23;;
49732;Laerm;43666;51.442;6.778;2022-12-18T08:43:49;36.73;26.91;40.80;;
49732;Laerm;43666;51.442;6.778;2022-12-18T08:46:39;36.60;26.91;40.23;;
49732;Laerm;43666;51.442;6.778;2022-12-18T08:49:06;36.44;26.91;39.99;;
49732;Laerm;43666;51.442;6.778;2022-12-18T08:51:32;36.51;26.91;40.03;;
49732;Laerm;43666;51.442;6.778;2022-12-18T08:53:58;36.63;26.91;40.33;;
49732;Laerm;43666;51.442;6.778;2022-12-18T08:56:25;36.90;28.67;40.62;;
49732;Laerm;43666;51.442;6.778;2022-12-18T08:58:51;36.69;26.91;41.06;;
49732;Laerm;43666;51.442;6.778;2022-12-18T09:01:17;36.76;29.92;41.46;;
49732;Laerm;43666;51.442;6.778;2022-12-18T09:03:43;36.74;28.67;40.13;;
49732;Laerm;43666;51.442;6.778;2022-12-18T09:06:09;36.91;26.91;40.71;;
49732;Laerm;43666;51.442;6.778;2022-12-18T09:08:38;36.87;28.67;40.71;;
49732;Laerm;43666;51.442;6.778;2022-12-18T09:11:04;37.18;28.67;41.14;;
49732;Laerm;43666;51.442;6.778;2022-12-18T09:13:30;37.21;26.91;40.71;;
49732;Laerm;43666;51.442;6.778;2022-12-18T09:15:56;36.85;28.67;40.62;;
49732;Laerm;43666;51.442;6.778;2022-12-18T09:18:22;36.86;29.92;40.03;;
49732;Laerm;43666;51.442;6.778;2022-12-18T09:20:49;36.86;28.67;40.62;;
49732;Laerm;43666;51.442;6.778;2022-12-18T09:23:17;36.96;26.91;40.62;;
49732;Laerm;43666;51.442;6.778;2022-12-18T09:25:43;37.03;26.91;41.30;;
49732;Laerm;43666;51.442;6.778;2022-12-18T09:28:12;36.81;29.92;41.06;;
49732;Laerm;43666;51.442;6.778;2022-12-18T09:30:39;37.09;26.91;41.26;;
49732;Laerm;43666;51.442;6.778;2022-12-18T09:33:05;37.01;28.67;41.06;;
49732;Laerm;43666;51.442;6.778;2022-12-18T09:35:31;36.80;28.67;41.61;;
49732;Laerm;43666;51.442;6.778;2022-12-18T09:37:57;36.69;28.32;41.06;;
49732;Laerm;43666;51.442;6.778;2022-12-18T09:40:25;36.66;29.57;41.38;;
49732;Laerm;43666;51.442;6.778;2022-12-18T09:42:52;36.94;28.67;41.14;;
49732;Laerm;43666;51.442;6.778;2022-12-18T09:45:19;37.07;28.67;40.80;;
49732;Laerm;43666;51.442;6.778;2022-12-18T09:47:45;36.95;29.92;40.23;;
49732;Laerm;43666;51.442;6.778;2022-12-18T09:50:26;36.96;5.00;40.89;;
49732;Laerm;43666;51.442;6.778;2022-12-18T09:52:54;37.05;26.91;40.33;;
49732;Laerm;43666;51.442;6.778;2022-12-18T09:55:24;36.98;26.91;40.89;;
49732;Laerm;43666;51.442;6.778;2022-12-18T09:57:52;37.04;28.67;40.23;;
49732;Laerm;43666;51.442;6.778;2022-12-18T10:00:20;36.89;28.67;43.24;;
49732;Laerm;43666;51.442;6.778;2022-12-18T10:02:47;36.56;23.90;40.43;;
49732;Laerm;43666;51.442;6.778;2022-12-18T10:05:20;36.57;29.92;40.03;;
49732;Laerm;43666;51.442;6.778;2022-12-18T10:08:24;36.61;28.67;40.43;;
49732;Laerm;43666;51.442;6.778;2022-12-18T10:10:44;36.58;26.91;42.65;;
49732;Laerm;43666;51.442;6.778;2022-12-18T10:13:18;36.58;26.91;39.81;;
49732;Laerm;43666;51.442;6.778;2022-12-18T10:18:25;36.49;26.91;39.70;;
49732;Laerm;43666;51.442;6.778;2022-12-18T10:20:56;36.55;26.91;40.33;;
49732;Laerm;43666;51.442;6.778;2022-12-18T10:23:48;36.55;26.91;40.03;;
49732;Laerm;43666;51.442;6.778;2022-12-18T10:26:17;36.54;28.67;40.71;;
49732;Laerm;43666;51.442;6.778;2022-12-18T10:28:44;36.68;28.67;40.33;;
49732;Laerm;43666;51.442;6.778;2022-12-18T10:31:31;36.78;29.92;40.80;;
49732;Laerm;43666;51.442;6.778;2022-12-18T10:33:56;36.94;29.57;41.14;;
49732;Laerm;43666;51.442;6.778;2022-12-18T10:36:23;36.91;29.92;41.06;;
49732;Laerm;43666;51.442;6.778;2022-12-18T10:38:49;36.67;28.67;40.03;;
49732;Laerm;43666;51.442;6.778;2022-12-18T10:43:44;36.54;28.67;40.03;;
49732;Laerm;43666;51.442;6.778;2022-12-18T10:51:04;36.39;28.67;39.58;;
49732;Laerm;43666;51.442;6.778;2022-12-18T10:53:31;36.19;28.32;39.58;;
49732;Laerm;43666;51.442;6.778;2022-12-18T10:55:58;36.11;26.91;39.21;;
49732;Laerm;43666;51.442;6.778;2022-12-18T11:01:04;36.41;28.67;39.70;;
49732;Laerm;43666;51.442;6.778;2022-12-18T11:03:31;36.33;26.91;39.58;;
49732;Laerm;43666;51.442;6.778;2022-12-18T11:06:03;36.18;28.67;39.70;;
49732;Laerm;43666;51.442;6.778;2022-12-18T11:08:29;36.18;26.91;39.46;;
49732;Laerm;43666;51.442;6.778;2022-12-18T11:10:55;36.20;29.92;39.58;;
49732;Laerm;43666;51.442;6.778;2022-12-18T11:13:21;36.32;28.67;40.03;;
49732;Laerm;43666;51.442;6.778;2022-12-18T11:15:48;36.39;26.91;39.46;;
49732;Laerm;43666;51.442;6.778;2022-12-18T11:18:19;36.38;26.91;39.58;;
49732;Laerm;43666;51.442;6.778;2022-12-18T11:20:50;36.33;23.90;39.58;;
49732;Laerm;43666;51.442;6.778;2022-12-18T11:23:16;36.46;29.92;40.03;;
49732;Laerm;43666;51.442;6.778;2022-12-18T11:26:19;36.27;29.92;40.03;;
49732;Laerm;43666;51.442;6.778;2022-12-18T11:28:39;36.25;23.90;39.81;;
49732;Laerm;43666;51.442;6.778;2022-12-18T11:33:38;36.21;28.32;40.23;;
49732;Laerm;43666;51.442;6.778;2022-12-18T11:36:05;36.21;23.90;39.08;;
49732;Laerm;43666;51.442;6.778;2022-12-18T11:38:34;36.16;28.67;39.21;;
49732;Laerm;43666;51.442;6.778;2022-12-18T11:44:01;36.16;26.91;39.21;;
49732;Laerm;43666;51.442;6.778;2022-12-18T11:46:31;36.26;28.67;39.58;;
49732;Laerm;43666;51.442;6.778;2022-12-18T11:48:59;36.14;26.91;39.58;;
49732;Laerm;43666;51.442;6.778;2022-12-18T11:51:32;36.12;29.92;39.46;;
49732;Laerm;43666;51.442;6.778;2022-12-18T11:54:00;36.13;26.91;39.08;;
49732;Laerm;43666;51.442;6.778;2022-12-18T11:56:31;36.13;28.67;38.95;;
49732;Laerm;43666;51.442;6.778;2022-12-18T12:09:29;36.06;28.67;39.70;;
49732;Laerm;43666;51.442;6.778;2022-12-18T12:20:00;36.04;29.92;39.46;;
49732;Laerm;43666;51.442;6.778;2022-12-18T12:25:28;36.11;29.57;38.95;;
49732;Laerm;43666;51.442;6.778;2022-12-18T12:27:59;36.09;23.90;39.21;;
49732;Laerm;43666;51.442;6.778;2022-12-18T12:35:55;36.08;29.92;39.70;;
49732;Laerm;43666;51.442;6.778;2022-12-18T12:38:34;36.12;29.92;39.46;;
49732;Laerm;43666;51.442;6.778;2022-12-18T12:41:02;36.16;29.92;39.34;;
49732;Laerm;43666;51.442;6.778;2022-12-18T12:43:39;36.11;29.92;39.70;;
49732;Laerm;43666;51.442;6.778;2022-12-18T12:46:08;36.15;29.92;39.70;;
49732;Laerm;43666;51.442;6.778;2022-12-18T12:48:42;36.11;26.91;39.34;;
49732;Laerm;43666;51.442;6.778;2022-12-18T12:53:45;36.10;28.67;39.58;;
49732;Laerm;43666;51.442;6.778;2022-12-18T12:56:11;36.08;26.91;39.08;;
49732;Laerm;43666;51.442;6.778;2022-12-18T12:58:42;36.06;29.92;39.08;;
49732;Laerm;43666;51.442;6.778;2022-12-18T13:01:22;36.08;26.91;39.21;;
49732;Laerm;43666;51.442;6.778;2022-12-18T13:06:47;36.03;26.91;39.08;;
49732;Laerm;43666;51.442;6.778;2022-12-18T13:09:16;36.07;29.92;39.70;;
49732;Laerm;43666;51.442;6.778;2022-12-18T13:11:43;36.08;26.91;39.46;;
49732;Laerm;43666;51.442;6.778;2022-12-18T13:14:35;36.08;26.91;39.70;;
49732;Laerm;43666;51.442;6.778;2022-12-18T13:17:15;36.07;26.91;39.08;;
49732;Laerm;43666;51.442;6.778;2022-12-18T13:19:42;36.11;28.67;39.34;;
49732;Laerm;43666;51.442;6.778;2022-12-18T13:22:23;36.16;28.67;39.92;;
49732;Laerm;43666;51.442;6.778;2022-12-18T13:24:51;36.09;29.92;39.34;;
49732;Laerm;43666;51.442;6.778;2022-12-18T13:30:19;36.09;28.67;39.58;;
49732;Laerm;43666;51.442;6.778;2022-12-18T13:33:19;36.13;26.91;39.34;;
49732;Laerm;43666;51.442;6.778;2022-12-18T13:35:39;36.10;28.67;39.58;;
49732;Laerm;43666;51.442;6.778;2022-12-18T13:38:21;36.09;28.67;40.13;;
49732;Laerm;43666;51.442;6.778;2022-12-18T13:48:31;36.04;28.67;39.08;;
49732;Laerm;43666;51.442;6.778;2022-12-18T13:51:03;36.03;26.91;39.08;;
49732;Laerm;43666;51.442;6.778;2022-12-18T13:53:30;36.04;29.92;38.95;;
49732;Laerm;43666;51.442;6.778;2022-12-18T13:55:58;36.03;28.67;39.46;;
49732;Laerm;43666;51.442;6.778;2022-12-18T13:58:23;36.05;28.67;39.34;;
49732;Laerm;43666;51.442;6.778;2022-12-18T14:00:49;35.98;29.57;39.08;;
49732;Laerm;43666;51.442;6.778;2022-12-18T14:03:22;35.99;28.67;39.08;;
49732;Laerm;43666;51.442;6.778;2022-12-18T14:05:52;36.03;28.67;39.21;;
49732;Laerm;43666;51.442;6.778;2022-12-18T14:08:20;36.00;23.90;39.34;;
49732;Laerm;43666;51.442;6.778;2022-12-18T14:10:46;36.00;28.67;39.08;;
49732;Laerm;43666;51.442;6.778;2022-12-18T14:13:32;35.98;23.55;39.34;;
49732;Laerm;43666;51.442;6.778;2022-12-18T14:16:00;35.99;26.91;39.21;;
49732;Laerm;43666;51.442;6.778;2022-12-18T14:18:31;35.96;28.67;39.11;;
49732;Laerm;43666;51.442;6.778;2022-12-18T14:21:00;36.01;28.67;39.70;;
49732;Laerm;43666;51.442;6.778;2022-12-18T14:26:00;36.05;26.91;39.21;;
49732;Laerm;43666;51.442;6.778;2022-12-18T14:28:27;36.04;30.54;39.34;;
49732;Laerm;43666;51.442;6.778;2022-12-18T14:30:53;35.99;29.92;39.46;;
49732;Laerm;43666;51.442;6.778;2022-12-18T14:33:22;36.01;28.32;39.70;;
49732;Laerm;43666;51.442;6.778;2022-12-18T14:43:23;35.99;26.91;39.34;;
49732;Laerm;43666;51.442;6.778;2022-12-18T14:45:49;36.02;28.67;39.23;;
49732;Laerm;43666;51.442;6.778;2022-12-18T14:48:19;36.04;26.91;39.34;;
49732;Laerm;43666;51.442;6.778;2022-12-18T14:50:53;36.02;29.92;39.08;;
49732;Laerm;43666;51.442;6.778;2022-12-18T14:53:22;36.02;30.89;39.08;;
49732;Laerm;43666;51.442;6.778;2022-12-18T14:55:48;35.97;28.67;39.70;;
49732;Laerm;43666;51.442;6.778;2022-12-18T14:58:18;35.98;28.67;39.21;;
49732;Laerm;43666;51.442;6.778;2022-12-18T15:00:44;36.00;28.67;39.34;;
49732;Laerm;43666;51.442;6.778;2022-12-18T15:03:09;35.97;28.67;39.34;;
49732;Laerm;43666;51.442;6.778;2022-12-18T15:05:35;35.99;28.67;39.58;;
49732;Laerm;43666;51.442;6.778;2022-12-18T15:08:01;36.01;28.67;39.21;;
49732;Laerm;43666;51.442;6.778;2022-12-18T15:10:31;36.01;23.90;39.70;;
49732;Laerm;43666;51.442;6.778;2022-12-18T15:18:00;36.01;29.92;39.46;;
49732;Laerm;43666;51.442;6.778;2022-12-18T15:20:26;36.04;23.90;40.33;;
49732;Laerm;43666;51.442;6.778;2022-12-18T15:22:56;36.01;28.67;39.34;;
49732;Laerm;43666;51.442;6.778;2022-12-18T15:25:32;36.00;28.67;39.08;;
49732;Laerm;43666;51.442;6.778;2022-12-18T15:28:00;36.01;28.67;39.34;;